Time;durP1;ratioP1;P1;durP2;ratioP2;P2;SDS_P1;SDS_P2;PMS_P1;PMS_P2;Temp;Humidity;BMP_temperature;BMP_pressure;BME280_temperature;BME280_humidity;BME280_pressure;Samples;Min_cycle;Max_cycle;Signal;HPM_P1;HPM_P2
2022/09/15 00:00:32;;;;;;;;;;;;;;;13.23;83.87;99046.66;89187;1263;80062;-63
2022/09/15 00:02:59;;;;;;;;;;;;;;;13.19;83.84;99043.55;89214;1263;81107;-61
2022/09/15 00:05:07;;;;;;;;;;;;;;;13.19;83.87;99042.56;89194;1263;99770;-62
2022/09/15 00:07:14;;;;;;;;;;;;;;;13.18;83.97;99040.88;89168;1263;89419;-61
2022/09/15 00:09:21;;;;;;;;;;;;;;;13.16;84.15;99041.48;89128;1263;93123;-62
2022/09/15 00:11:33;;;;;;;;;;;;;;;13.17;84.08;99045.02;89150;1263;81858;-61
2022/09/15 00:13:42;;;;;;;;;;;;;;;13.16;84.03;99035.79;89133;1263;83111;-61
2022/09/15 00:15:50;;;;;;;;;;;;;;;13.16;84.08;99037.20;89123;1263;99750;-61
2022/09/15 00:17:57;;;;;;;;;;;;;;;13.15;84.15;99035.88;89087;1263;87621;-61
2022/09/15 00:20:06;;;;;;;;;;;;;;;13.15;84.17;99033.27;89131;1263;94971;-61
2022/09/15 00:22:13;;;;;;;;;;;;;;;13.15;84.21;99032.30;89086;1263;80950;-61
2022/09/15 00:24:21;;;;;;;;;;;;;;;13.15;84.19;99029.59;89147;1263;82235;-61
2022/09/15 00:26:31;;;;;;;;;;;;;;;13.15;84.24;99031.55;89149;1263;99780;-60
2022/09/15 00:28:39;;;;;;;;;;;;;;;13.16;84.18;99033.77;89166;1263;88729;-60
2022/09/15 00:30:47;;;;;;;;;;;;;;;13.17;84.29;99036.55;89126;1263;95158;-61
2022/09/15 00:32:56;;;;;;;;;;;;;;;13.14;84.30;99040.58;89145;1263;82099;-60
2022/09/15 00:35:06;;;;;;;;;;;;;;;13.14;84.32;99043.37;89145;1263;82857;-60
2022/09/15 00:37:13;;;;;;;;;;;;;;;13.17;84.44;99049.20;89181;1263;99666;-60
2022/09/15 00:39:20;;;;;;;;;;;;;;;13.19;84.53;99051.08;89216;1263;88957;-60
2022/09/15 00:41:28;;;;;;;;;;;;;;;13.22;84.66;99050.13;89228;1263;95306;-60
2022/09/15 00:43:48;;;;;;;;;;;;;;;13.23;84.75;99048.08;89186;1263;80780;-60
2022/09/15 00:45:55;;;;;;;;;;;;;;;13.24;84.84;99052.33;89214;1263;80632;-61
2022/09/15 00:48:03;;;;;;;;;;;;;;;13.28;84.93;99050.73;89145;1263;100332;-61
2022/09/15 00:50:13;;;;;;;;;;;;;;;13.31;85.04;99052.11;89111;1263;87903;-62
2022/09/15 00:52:27;;;;;;;;;;;;;;;13.35;84.94;99049.36;89126;1263;94313;-61
2022/09/15 00:54:39;;;;;;;;;;;;;;;13.40;84.95;99050.61;89126;1263;81570;-60
2022/09/15 00:56:48;;;;;;;;;;;;;;;13.44;84.92;99044.84;89120;1263;81093;-60
2022/09/15 00:59:00;;;;;;;;;;;;;;;13.47;84.94;99034.41;89106;1263;97249;-62
2022/09/15 01:01:09;;;;;;;;;;;;;;;13.52;84.93;99032.51;89123;1263;88893;-61
2022/09/15 01:03:19;;;;;;;;;;;;;;;13.56;84.88;99031.13;89111;1263;94390;-61
2022/09/15 01:05:34;;;;;;;;;;;;;;;13.60;84.98;99025.45;89113;1263;83593;-61
2022/09/15 01:07:46;;;;;;;;;;;;;;;13.64;85.00;99023.34;89117;1263;82574;-60
2022/09/15 01:09:57;;;;;;;;;;;;;;;13.66;84.92;99024.37;89120;1263;99155;-61
2022/09/15 01:12:06;;;;;;;;;;;;;;;13.67;84.99;99020.80;89134;1263;88811;-61
2022/09/15 01:14:17;;;;;;;;;;;;;;;13.67;84.97;99017.43;89154;1263;94893;-61
2022/09/15 01:16:31;;;;;;;;;;;;;;;13.67;85.04;99019.12;89133;1263;82668;-61
2022/09/15 01:18:44;;;;;;;;;;;;;;;13.71;84.99;99020.05;89190;1263;82394;-62
2022/09/15 01:21:17;;;;;;;;;;;;;;;13.73;84.90;99016.25;89147;1263;99361;-62
2022/09/15 01:23:52;;;;;;;;;;;;;;;13.72;84.81;99015.05;89221;1263;88745;-62
2022/09/15 01:26:35;;;;;;;;;;;;;;;13.70;84.83;99014.83;89191;1263;96557;-62
2022/09/15 01:28:59;;;;;;;;;;;;;;;13.70;84.81;99009.30;89192;1263;82646;-61
2022/09/15 01:31:12;;;;;;;;;;;;;;;13.71;84.78;99003.38;89221;1263;83091;-60
2022/09/15 01:33:27;;;;;;;;;;;;;;;13.70;84.86;98999.90;89175;1263;99255;-61
2022/09/15 01:35:49;;;;;;;;;;;;;;;13.67;84.85;98999.05;89110;1263;88905;-61
2022/09/15 01:38:03;;;;;;;;;;;;;;;13.67;84.80;98993.92;89092;1263;94486;-60
2022/09/15 01:40:15;;;;;;;;;;;;;;;13.66;84.83;98993.30;89153;1263;81361;-61
2022/09/15 01:42:28;;;;;;;;;;;;;;;13.66;84.86;98992.94;89114;1263;82748;-62
2022/09/15 01:44:42;;;;;;;;;;;;;;;13.65;84.78;98994.77;89073;1263;99847;-60
2022/09/15 01:46:52;;;;;;;;;;;;;;;13.64;84.72;98991.39;89128;1263;87523;-61
2022/09/15 01:49:01;;;;;;;;;;;;;;;13.62;84.92;98989.44;89167;1263;95211;-62
2022/09/15 01:51:09;;;;;;;;;;;;;;;13.58;85.04;98984.29;89090;1263;80814;-63
2022/09/15 01:53:23;;;;;;;;;;;;;;;13.57;85.10;98983.11;89069;1263;83072;-62
2022/09/15 01:55:37;;;;;;;;;;;;;;;13.55;85.11;98990.41;89152;1263;99949;-61
2022/09/15 01:57:44;;;;;;;;;;;;;;;13.53;85.29;98988.20;89172;1263;86636;-61
2022/09/15 01:59:54;;;;;;;;;;;;;;;13.54;85.32;98990.93;89102;1263;92700;-61
2022/09/15 02:02:04;;;;;;;;;;;;;;;13.54;85.22;98989.09;89153;1263;82793;-61
2022/09/15 02:04:16;;;;;;;;;;;;;;;13.56;85.33;98988.32;89204;1263;83098;-61
2022/09/15 02:06:35;;;;;;;;;;;;;;;13.55;85.36;98986.98;89184;1263;97320;-61
2022/09/15 02:08:47;;;;;;;;;;;;;;;13.55;85.38;98985.79;89146;1263;87325;-61
2022/09/15 02:11:03;;;;;;;;;;;;;;;13.57;85.47;98984.65;89140;1263;94863;-61
2022/09/15 02:13:17;;;;;;;;;;;;;;;13.58;85.44;98984.33;89177;1263;80336;-61
2022/09/15 02:15:29;;;;;;;;;;;;;;;13.60;85.48;98981.59;89140;1263;80919;-61
2022/09/15 02:17:38;;;;;;;;;;;;;;;13.61;85.62;98980.48;89167;1263;97895;-61
2022/09/15 02:19:49;;;;;;;;;;;;;;;13.64;85.57;98977.54;89130;1263;86111;-60
2022/09/15 02:22:01;;;;;;;;;;;;;;;13.70;85.69;98974.30;89134;1263;93101;-61
2022/09/15 02:24:13;;;;;;;;;;;;;;;13.77;85.72;98971.17;89122;1263;81530;-62
2022/09/15 02:26:23;;;;;;;;;;;;;;;13.82;85.73;98967.12;89142;1263;82241;-62
2022/09/15 02:28:34;;;;;;;;;;;;;;;13.82;85.61;98963.31;89171;1263;98961;-61
2022/09/15 02:30:43;;;;;;;;;;;;;;;13.83;85.64;98959.71;89120;1263;89516;-61
2022/09/15 02:32:57;;;;;;;;;;;;;;;13.87;85.65;98960.41;89114;1263;95089;-60
2022/09/15 02:35:08;;;;;;;;;;;;;;;13.90;85.58;98960.54;89106;1263;81745;-62
2022/09/15 02:37:17;;;;;;;;;;;;;;;13.91;85.56;98955.89;89125;1263;81284;-62
2022/09/15 02:39:30;;;;;;;;;;;;;;;13.92;85.51;98956.75;89154;1263;97752;-61
2022/09/15 02:41:37;;;;;;;;;;;;;;;13.93;85.43;98957.64;89115;1263;88493;-60
2022/09/15 02:43:49;;;;;;;;;;;;;;;13.92;85.45;98960.55;89106;1263;94553;-61
2022/09/15 02:45:56;;;;;;;;;;;;;;;13.91;85.51;98965.98;89122;1263;81156;-61
2022/09/15 02:48:03;;;;;;;;;;;;;;;13.91;85.47;98965.11;89095;1263;81944;-60
2022/09/15 02:50:11;;;;;;;;;;;;;;;13.92;85.46;98968.81;89108;1263;100136;-60
2022/09/15 02:52:18;;;;;;;;;;;;;;;13.88;85.61;98967.48;89096;1263;88747;-61
2022/09/15 02:54:26;;;;;;;;;;;;;;;13.86;85.53;98965.45;89130;1263;96345;-61
2022/09/15 02:56:33;;;;;;;;;;;;;;;13.83;85.56;98964.05;89058;1263;81242;-61
2022/09/15 02:58:43;;;;;;;;;;;;;;;13.80;85.56;98964.05;89142;1264;81994;-61
2022/09/15 03:00:54;;;;;;;;;;;;;;;13.78;85.57;98963.42;89069;1264;98945;-61
2022/09/15 03:03:06;;;;;;;;;;;;;;;13.76;85.68;98957.40;89124;1263;88717;-60
2022/09/15 03:05:20;;;;;;;;;;;;;;;13.76;85.65;98960.17;89060;1264;93697;-62
2022/09/15 03:07:29;;;;;;;;;;;;;;;13.76;85.66;98957.85;89078;1264;82402;-62
2022/09/15 03:09:36;;;;;;;;;;;;;;;13.75;85.71;98961.58;89081;1264;82501;-62
2022/09/15 03:11:43;;;;;;;;;;;;;;;13.76;85.72;98953.39;89049;1263;98612;-62
2022/09/15 03:13:53;;;;;;;;;;;;;;;13.76;85.70;98951.38;89077;1264;87343;-62
2022/09/15 03:16:06;;;;;;;;;;;;;;;13.77;85.83;98947.80;89030;1264;92460;-62
2022/09/15 03:18:14;;;;;;;;;;;;;;;13.78;85.92;98944.57;89064;1263;81348;-62
2022/09/15 03:20:26;;;;;;;;;;;;;;;13.78;85.81;98943.16;89030;1264;82080;-60
2022/09/15 03:22:34;;;;;;;;;;;;;;;13.80;85.95;98941.02;89080;1264;99197;-60
2022/09/15 03:24:41;;;;;;;;;;;;;;;13.80;86.00;98939.71;89066;1263;88669;-62
2022/09/15 03:26:49;;;;;;;;;;;;;;;13.81;86.03;98938.88;89054;1263;95563;-61
2022/09/15 03:28:56;;;;;;;;;;;;;;;13.83;86.06;98943.20;89059;1262;81359;-61
2022/09/15 03:31:08;;;;;;;;;;;;;;;13.86;86.17;98944.65;89063;1263;83080;-61
2022/09/15 03:33:19;;;;;;;;;;;;;;;13.88;86.18;98945.13;89008;1265;100906;-61
2022/09/15 03:35:25;;;;;;;;;;;;;;;13.92;86.18;98944.17;89110;1264;87581;-60
2022/09/15 03:37:34;;;;;;;;;;;;;;;13.94;86.26;98944.91;89026;1264;94069;-61
2022/09/15 03:39:47;;;;;;;;;;;;;;;13.97;86.34;98948.17;89088;1264;82623;-62
2022/09/15 03:41:54;;;;;;;;;;;;;;;14.04;86.33;98945.55;89089;1263;80854;-62
2022/09/15 03:44:05;;;;;;;;;;;;;;;14.08;86.33;98948.27;89083;1263;99154;-62
2022/09/15 03:46:13;;;;;;;;;;;;;;;14.11;86.29;98946.00;89159;1263;89158;-61
2022/09/15 03:48:21;;;;;;;;;;;;;;;14.13;86.40;98947.48;89140;1263;96229;-62
2022/09/15 03:50:28;;;;;;;;;;;;;;;14.13;86.39;98951.57;89144;1263;82087;-61
2022/09/15 03:52:35;;;;;;;;;;;;;;;14.16;86.21;98956.77;89194;1263;82073;-60
2022/09/15 03:54:48;;;;;;;;;;;;;;;14.19;86.30;98951.92;89138;1263;98081;-60
2022/09/15 03:56:57;;;;;;;;;;;;;;;14.19;86.36;98949.88;89157;1263;87571;-60
2022/09/15 03:59:05;;;;;;;;;;;;;;;14.22;86.26;98949.10;89146;1263;93981;-61
2022/09/15 04:01:13;;;;;;;;;;;;;;;14.22;86.17;98948.88;89156;1263;81335;-62
2022/09/15 04:03:20;;;;;;;;;;;;;;;14.23;86.33;98954.77;89184;1263;80288;-60
2022/09/15 04:05:30;;;;;;;;;;;;;;;14.25;86.24;98962.41;89105;1263;98539;-60
2022/09/15 04:07:38;;;;;;;;;;;;;;;14.25;86.10;98961.42;89125;1263;88719;-62
2022/09/15 04:09:44;;;;;;;;;;;;;;;14.26;86.07;98962.64;89083;1263;95519;-62
2022/09/15 04:11:51;;;;;;;;;;;;;;;14.30;86.07;98963.23;89091;1263;81757;-62
2022/09/15 04:13:58;;;;;;;;;;;;;;;14.32;86.06;98959.88;89114;1263;81792;-61
2022/09/15 04:16:11;;;;;;;;;;;;;;;14.32;86.03;98958.02;89134;1263;99438;-60
2022/09/15 04:18:20;;;;;;;;;;;;;;;14.31;86.04;98957.77;89155;1263;88943;-61
2022/09/15 04:20:30;;;;;;;;;;;;;;;14.34;86.06;98951.38;89141;1263;95622;-63
2022/09/15 04:22:38;;;;;;;;;;;;;;;14.33;85.97;98950.28;89154;1263;81755;-62
2022/09/15 04:24:46;;;;;;;;;;;;;;;14.29;85.94;98956.44;89173;1263;82288;-62
2022/09/15 04:26:57;;;;;;;;;;;;;;;14.24;85.81;98955.30;89123;1263;96910;-62
2022/09/15 04:29:14;;;;;;;;;;;;;;;14.20;85.71;98949.89;89138;1263;89261;-62
2022/09/15 04:31:22;;;;;;;;;;;;;;;14.16;85.69;98944.77;89159;1263;95444;-62
2022/09/15 04:33:29;;;;;;;;;;;;;;;14.13;85.73;98940.80;89179;1263;81950;-62
2022/09/15 04:35:38;;;;;;;;;;;;;;;14.13;85.65;98939.88;89167;1263;80563;-62
2022/09/15 04:37:46;;;;;;;;;;;;;;;14.09;85.46;98937.48;89147;1263;98853;-62
2022/09/15 04:39:55;;;;;;;;;;;;;;;14.07;85.38;98935.02;89182;1263;88590;-60
2022/09/15 04:42:06;;;;;;;;;;;;;;;14.07;85.30;98933.21;89120;1263;93713;-60
2022/09/15 04:44:13;;;;;;;;;;;;;;;14.02;85.22;98927.21;88825;1262;529920;-60
2022/09/15 04:46:21;;;;;;;;;;;;;;;13.96;85.31;98927.45;89133;1263;82818;-60
2022/09/15 04:48:32;;;;;;;;;;;;;;;13.90;85.21;98933.33;89070;1264;97454;-60
2022/09/15 04:50:39;;;;;;;;;;;;;;;13.88;85.30;98932.70;89163;1263;87518;-60
2022/09/15 04:52:47;;;;;;;;;;;;;;;13.83;85.30;98931.86;89125;1263;95765;-60
2022/09/15 04:54:55;;;;;;;;;;;;;;;13.81;85.42;98934.42;89143;1263;79918;-59
2022/09/15 04:57:05;;;;;;;;;;;;;;;13.82;85.55;98931.88;89173;1263;82652;-59
2022/09/15 04:59:16;;;;;;;;;;;;;;;13.89;85.64;98931.09;89135;1263;99685;-60
2022/09/15 05:01:26;;;;;;;;;;;;;;;13.94;85.76;98934.86;89144;1263;88952;-60
2022/09/15 05:03:35;;;;;;;;;;;;;;;13.99;85.81;98938.26;89128;1263;95471;-60
2022/09/15 05:08:35;;;;;;;;;;;;;;;14.05;85.83;98944.22;88963;1265;82652;-63
2022/09/15 05:10:42;;;;;;;;;;;;;;;14.06;85.84;98945.43;89030;1264;100177;-61
2022/09/15 05:12:52;;;;;;;;;;;;;;;14.10;85.81;98946.36;89037;1264;88270;-61
2022/09/15 05:15:00;;;;;;;;;;;;;;;14.13;85.77;98945.31;88998;1265;94553;-61
2022/09/15 05:17:10;;;;;;;;;;;;;;;14.16;85.79;98943.47;89080;1264;81326;-60
2022/09/15 05:19:19;;;;;;;;;;;;;;;14.22;85.78;98945.95;89031;1264;81856;-60
2022/09/15 05:21:28;;;;;;;;;;;;;;;14.27;85.73;98945.36;89087;1265;99912;-62
2022/09/15 05:23:37;;;;;;;;;;;;;;;14.32;85.71;98950.15;89102;1265;86175;-62
2022/09/15 05:25:44;;;;;;;;;;;;;;;14.34;85.68;98950.02;89069;1264;95374;-62
2022/09/15 05:27:51;;;;;;;;;;;;;;;14.38;85.71;98952.67;88999;1264;81994;-62
2022/09/15 05:30:01;;;;;;;;;;;;;;;14.45;85.63;98951.83;89029;1264;80459;-63
2022/09/15 05:32:10;;;;;;;;;;;;;;;14.51;85.73;98948.70;89021;1265;97511;-62
2022/09/15 05:34:20;;;;;;;;;;;;;;;14.57;85.62;98952.86;88978;1264;89513;-63
2022/09/15 05:36:28;;;;;;;;;;;;;;;14.64;85.57;98950.46;89025;1265;94598;-60
2022/09/15 05:38:35;;;;;;;;;;;;;;;14.69;85.49;98951.34;89013;1264;82535;-59
2022/09/15 05:40:50;;;;;;;;;;;;;;;14.76;85.28;98950.04;89020;1265;83024;-60
2022/09/15 05:42:57;;;;;;;;;;;;;;;14.84;85.25;98951.77;89005;1265;99734;-60
2022/09/15 05:45:06;;;;;;;;;;;;;;;14.91;85.29;98952.73;89011;1265;87219;-60
2022/09/15 05:47:15;;;;;;;;;;;;;;;14.98;85.13;98951.34;89026;1264;94737;-61
2022/09/15 05:49:23;;;;;;;;;;;;;;;15.07;84.96;98952.89;88998;1265;82841;-62
2022/09/15 05:51:30;;;;;;;;;;;;;;;15.13;84.75;98956.60;89067;1265;80945;-59
2022/09/15 05:53:38;;;;;;;;;;;;;;;15.16;84.56;98959.73;89005;1264;99232;-60
2022/09/15 05:55:46;;;;;;;;;;;;;;;15.15;84.54;98958.80;89017;1264;89231;-60
2022/09/15 05:57:53;;;;;;;;;;;;;;;15.16;84.41;98958.70;89051;1265;93823;-59
2022/09/15 06:00:00;;;;;;;;;;;;;;;15.18;84.49;98960.73;89005;1264;80778;-61
2022/09/15 06:02:07;;;;;;;;;;;;;;;15.20;84.35;98958.91;89046;1264;82707;-60
2022/09/15 06:04:14;;;;;;;;;;;;;;;15.27;84.23;98957.41;89088;1265;98870;-62
2022/09/15 06:06:22;;;;;;;;;;;;;;;15.34;84.03;98957.98;89040;1264;88041;-62
2022/09/15 06:08:34;;;;;;;;;;;;;;;15.40;84.02;98959.67;89066;1265;94524;-63
2022/09/15 06:10:47;;;;;;;;;;;;;;;15.45;83.87;98957.20;89041;1265;80063;-59
2022/09/15 06:13:09;;;;;;;;;;;;;;;15.51;83.66;98956.23;88978;1265;82180;-61
2022/09/15 06:15:25;;;;;;;;;;;;;;;15.59;83.62;98958.39;88959;1267;97305;-62
2022/09/15 06:17:41;;;;;;;;;;;;;;;15.62;83.55;98964.14;89076;1265;89033;-61
2022/09/15 06:19:57;;;;;;;;;;;;;;;15.62;83.32;98968.00;88948;1267;94704;-61
2022/09/15 06:22:08;;;;;;;;;;;;;;;15.58;83.05;98968.08;89044;1265;80323;-61
2022/09/15 06:24:23;;;;;;;;;;;;;;;15.57;83.06;98967.08;89034;1265;82327;-62
2022/09/15 06:26:36;;;;;;;;;;;;;;;15.61;83.08;98965.11;89022;1265;100116;-61
2022/09/15 06:28:48;;;;;;;;;;;;;;;15.71;83.04;98967.28;88996;1265;89000;-60
2022/09/15 06:31:00;;;;;;;;;;;;;;;15.83;82.82;98965.00;89051;1265;95268;-61
2022/09/15 06:33:07;;;;;;;;;;;;;;;15.93;82.64;98967.44;88983;1265;80960;-61
2022/09/15 06:35:14;;;;;;;;;;;;;;;16.02;82.52;98970.89;89023;1265;81755;-60
2022/09/15 06:37:22;;;;;;;;;;;;;;;16.08;82.33;98972.85;89033;1265;100543;-60
2022/09/15 06:39:29;;;;;;;;;;;;;;;16.12;82.08;98969.78;89018;1265;89021;-61
2022/09/15 06:41:38;;;;;;;;;;;;;;;16.10;81.75;98976.08;89028;1265;95055;-62
2022/09/15 06:43:45;;;;;;;;;;;;;;;16.10;81.59;98969.17;89056;1265;78915;-62
2022/09/15 06:45:53;;;;;;;;;;;;;;;16.15;81.53;98971.98;89036;1265;81914;-61
2022/09/15 06:48:05;;;;;;;;;;;;;;;16.21;81.46;98973.77;88958;1267;101545;-61
2022/09/15 06:50:13;;;;;;;;;;;;;;;16.27;81.29;98976.45;89111;1265;88620;-61
2022/09/15 06:52:20;;;;;;;;;;;;;;;16.42;81.31;98979.17;89043;1265;94688;-62
2022/09/15 06:54:30;;;;;;;;;;;;;;;16.60;81.31;98980.52;89025;1265;80736;-62
2022/09/15 06:56:39;;;;;;;;;;;;;;;16.76;80.94;98983.80;89027;1265;82344;-59
2022/09/15 06:58:47;;;;;;;;;;;;;;;16.93;80.66;98979.46;89002;1265;98926;-59
2022/09/15 07:01:03;;;;;;;;;;;;;;;17.01;80.20;98982.02;89064;1265;90302;-60
2022/09/15 07:03:12;;;;;;;;;;;;;;;17.13;79.74;98988.95;89017;1265;95188;-60
2022/09/15 07:05:27;;;;;;;;;;;;;;;17.29;79.72;98989.39;88986;1265;80421;-61
2022/09/15 07:07:34;;;;;;;;;;;;;;;17.42;79.36;98986.87;89054;1265;82962;-61
2022/09/15 07:09:41;;;;;;;;;;;;;;;17.56;78.77;98985.14;89025;1265;99585;-60
2022/09/15 07:11:48;;;;;;;;;;;;;;;17.70;78.56;98978.65;89000;1265;89338;-60
2022/09/15 07:13:55;;;;;;;;;;;;;;;17.82;78.63;98982.48;89012;1265;95143;-60
2022/09/15 07:16:04;;;;;;;;;;;;;;;18.07;78.32;98986.23;89011;1265;81809;-61
2022/09/15 07:18:11;;;;;;;;;;;;;;;18.32;78.07;98986.19;89008;1265;82195;-61
2022/09/15 07:20:19;;;;;;;;;;;;;;;18.52;77.51;98985.92;89044;1265;97958;-61
2022/09/15 07:22:30;;;;;;;;;;;;;;;18.61;76.82;98991.27;89017;1265;88153;-62
2022/09/15 07:24:37;;;;;;;;;;;;;;;18.78;76.26;98992.18;88984;1265;94108;-61
2022/09/15 07:26:44;;;;;;;;;;;;;;;19.02;75.82;98994.86;88980;1265;80698;-61
2022/09/15 07:28:54;;;;;;;;;;;;;;;19.33;75.34;98996.95;89007;1265;82806;-60
2022/09/15 07:31:01;;;;;;;;;;;;;;;19.66;75.07;98993.46;89020;1265;100035;-61
2022/09/15 07:33:12;;;;;;;;;;;;;;;19.91;74.56;98988.98;89022;1265;88909;-59
2022/09/15 07:35:20;;;;;;;;;;;;;;;19.99;73.92;98992.01;89029;1265;95666;-60
2022/09/15 07:37:32;;;;;;;;;;;;;;;19.90;73.51;98996.77;89048;1265;80272;-60
2022/09/15 07:39:39;;;;;;;;;;;;;;;20.04;73.11;99000.47;89000;1265;82638;-60
2022/09/15 07:41:47;;;;;;;;;;;;;;;20.45;73.51;98998.96;89069;1265;100417;-60
2022/09/15 07:43:58;;;;;;;;;;;;;;;21.45;73.82;99004.78;89066;1265;88560;-60
2022/09/15 07:46:08;;;;;;;;;;;;;;;22.88;72.37;98997.25;89102;1265;95499;-60
2022/09/15 07:48:16;;;;;;;;;;;;;;;24.11;70.74;98996.83;89076;1265;79117;-59
2022/09/15 07:50:23;;;;;;;;;;;;;;;25.22;69.52;98997.61;89081;1265;81117;-62
2022/09/15 07:52:32;;;;;;;;;;;;;;;25.81;67.48;99003.55;89020;1265;100416;-61
2022/09/15 07:54:40;;;;;;;;;;;;;;;26.05;66.13;99001.54;88980;1267;91109;-61
2022/09/15 07:56:48;;;;;;;;;;;;;;;26.55;65.07;99004.02;89023;1265;95435;-61
2022/09/15 07:58:55;;;;;;;;;;;;;;;27.50;64.52;99005.11;89020;1265;79127;-60
2022/09/15 08:01:06;;;;;;;;;;;;;;;28.31;62.81;99006.46;89025;1265;83051;-62
2022/09/15 08:03:14;;;;;;;;;;;;;;;29.05;61.37;99006.70;88987;1265;100015;-61
2022/09/15 08:05:22;;;;;;;;;;;;;;;29.42;59.56;99002.41;88998;1265;89014;-62
2022/09/15 08:07:29;;;;;;;;;;;;;;;29.71;58.97;98999.33;89000;1265;95319;-63
2022/09/15 08:09:36;;;;;;;;;;;;;;;30.23;57.99;98997.11;88969;1265;80220;-63
2022/09/15 08:11:44;;;;;;;;;;;;;;;30.61;56.23;98999.20;89023;1265;82372;-61
2022/09/15 08:13:54;;;;;;;;;;;;;;;30.71;54.87;98994.63;89005;1265;100244;-60
2022/09/15 08:16:06;;;;;;;;;;;;;;;30.97;54.23;98991.54;89005;1265;87687;-61
2022/09/15 08:18:15;;;;;;;;;;;;;;;31.36;53.01;98993.83;89018;1265;95138;-61
2022/09/15 08:20:25;;;;;;;;;;;;;;;31.56;51.31;98988.30;89050;1265;80658;-63
2022/09/15 08:22:34;;;;;;;;;;;;;;;31.70;49.84;98986.54;89005;1265;82956;-63
2022/09/15 08:24:42;;;;;;;;;;;;;;;31.75;49.57;98987.46;88997;1265;99682;-63
2022/09/15 08:26:49;;;;;;;;;;;;;;;31.81;49.10;98990.70;89057;1265;88838;-62
2022/09/15 08:28:58;;;;;;;;;;;;;;;31.72;47.92;98989.79;89074;1265;93489;-62
2022/09/15 08:31:07;;;;;;;;;;;;;;;31.74;47.46;98996.21;89090;1265;80141;-62
2022/09/15 08:33:14;;;;;;;;;;;;;;;31.76;46.72;98996.11;89033;1265;82208;-62
2022/09/15 08:35:22;;;;;;;;;;;;;;;31.99;46.49;98999.20;89012;1267;100521;-61
2022/09/15 08:37:30;;;;;;;;;;;;;;;32.17;46.00;98997.30;89074;1265;89057;-63
2022/09/15 08:39:38;;;;;;;;;;;;;;;32.13;45.06;98997.92;88990;1265;94759;-63
2022/09/15 08:41:46;;;;;;;;;;;;;;;32.21;44.70;98996.73;89036;1265;80201;-60
2022/09/15 08:44:03;;;;;;;;;;;;;;;32.25;43.80;98999.72;89058;1265;82973;-62
2022/09/15 08:46:15;;;;;;;;;;;;;;;32.04;43.27;98997.65;89052;1265;98921;-62
2022/09/15 08:48:27;;;;;;;;;;;;;;;31.90;42.58;98994.05;89057;1265;86690;-63
2022/09/15 08:50:40;;;;;;;;;;;;;;;31.41;41.89;99001.30;88999;1265;95523;-64
2022/09/15 08:52:50;;;;;;;;;;;;;;;30.84;41.32;98995.88;89026;1265;80038;-63
2022/09/15 08:55:05;;;;;;;;;;;;;;;31.00;41.59;98997.35;89027;1265;83262;-67
2022/09/15 08:57:19;;;;;;;;;;;;;;;31.31;41.74;98999.05;89007;1265;98847;-62
2022/09/15 08:59:32;;;;;;;;;;;;;;;31.10;40.59;98998.51;89016;1265;89571;-62
2022/09/15 09:01:46;;;;;;;;;;;;;;;30.99;41.31;98999.65;89066;1265;95160;-61
2022/09/15 09:04:14;;;;;;;;;;;;;;;30.82;40.92;98997.58;89038;1265;80690;-61
2022/09/15 09:06:31;;;;;;;;;;;;;;;30.88;41.15;98998.53;89055;1265;80687;-61
2022/09/15 09:09:09;;;;;;;;;;;;;;;31.01;41.06;99003.27;89021;1265;100166;-62
2022/09/15 09:11:26;;;;;;;;;;;;;;;31.06;41.10;99003.02;89028;1265;89541;-61
2022/09/15 09:13:44;;;;;;;;;;;;;;;31.19;40.37;99002.73;89003;1265;96050;-62
2022/09/15 09:16:04;;;;;;;;;;;;;;;31.32;40.28;99001.94;89005;1265;80475;-61
2022/09/15 09:18:25;;;;;;;;;;;;;;;31.52;40.15;99001.44;89047;1265;83280;-63
2022/09/15 09:20:43;;;;;;;;;;;;;;;31.28;39.74;99001.27;89073;1265;99524;-62
2022/09/15 09:22:53;;;;;;;;;;;;;;;31.25;39.82;99000.58;89080;1265;89481;-62
2022/09/15 09:25:11;;;;;;;;;;;;;;;31.21;38.91;99004.05;89056;1265;95072;-62
2022/09/15 09:27:22;;;;;;;;;;;;;;;30.85;39.03;99001.05;89063;1265;79281;-59
2022/09/15 09:29:33;;;;;;;;;;;;;;;30.80;39.04;99006.43;89049;1265;82304;-60
2022/09/15 09:31:41;;;;;;;;;;;;;;;30.73;38.91;99007.73;89063;1265;100039;-61
2022/09/15 09:33:53;;;;;;;;;;;;;;;30.49;39.62;99003.41;89030;1265;89222;-59
2022/09/15 09:36:02;;;;;;;;;;;;;;;30.29;39.18;99003.38;89037;1265;94574;-60
2022/09/15 09:38:10;;;;;;;;;;;;;;;29.96;39.15;99003.48;89029;1265;80385;-60
2022/09/15 09:40:19;;;;;;;;;;;;;;;29.66;38.91;99003.12;89016;1265;83370;-62
2022/09/15 09:42:31;;;;;;;;;;;;;;;29.14;38.93;98998.66;88986;1265;99365;-62
2022/09/15 09:44:39;;;;;;;;;;;;;;;28.45;39.28;98997.69;89036;1265;89535;-61
2022/09/15 09:46:48;;;;;;;;;;;;;;;27.70;39.70;98998.65;89006;1265;93622;-62
2022/09/15 09:49:01;;;;;;;;;;;;;;;26.95;40.16;99003.80;89012;1265;80654;-61
2022/09/15 09:51:28;;;;;;;;;;;;;;;26.17;40.79;99004.80;89055;1265;82469;-60
2022/09/15 09:53:41;;;;;;;;;;;;;;;25.78;41.41;99004.52;89032;1265;99655;-60
2022/09/15 09:55:53;;;;;;;;;;;;;;;25.47;42.53;99005.39;89065;1265;85869;-62
2022/09/15 09:58:14;;;;;;;;;;;;;;;25.22;43.35;99008.63;89002;1265;95826;-63
2022/09/15 10:00:35;;;;;;;;;;;;;;;25.05;43.86;98999.38;89039;1265;79434;-61
2022/09/15 10:02:48;;;;;;;;;;;;;;;24.90;44.17;99000.17;89047;1265;82803;-61
2022/09/15 10:05:20;;;;;;;;;;;;;;;24.71;44.60;98999.81;88995;1267;98831;-61
2022/09/15 10:07:32;;;;;;;;;;;;;;;24.46;44.54;98993.38;89072;1265;89031;-61
2022/09/15 10:09:40;;;;;;;;;;;;;;;24.40;44.62;98993.15;89021;1265;94282;-61
2022/09/15 10:11:50;;;;;;;;;;;;;;;24.48;44.92;98993.27;89036;1265;80480;-61
2022/09/15 10:13:58;;;;;;;;;;;;;;;24.68;44.47;98995.09;89004;1267;82515;-62
2022/09/15 10:16:10;;;;;;;;;;;;;;;24.78;43.58;98994.58;89083;1265;99415;-63
2022/09/15 10:18:32;;;;;;;;;;;;;;;24.66;44.44;98995.42;89104;1265;89689;-64
2022/09/15 10:20:49;;;;;;;;;;;;;;;24.47;44.71;98988.51;89071;1265;95404;-63
2022/09/15 10:23:04;;;;;;;;;;;;;;;24.31;44.68;98986.48;89017;1265;80915;-62
2022/09/15 10:25:31;;;;;;;;;;;;;;;24.10;45.01;98991.45;89056;1265;83010;-61
2022/09/15 10:27:41;;;;;;;;;;;;;;;23.88;45.29;98992.71;89041;1265;98011;-60
2022/09/15 10:29:48;;;;;;;;;;;;;;;23.69;45.83;98994.35;89014;1265;88922;-60
2022/09/15 10:31:56;;;;;;;;;;;;;;;23.57;46.08;99001.06;88988;1265;95540;-60
2022/09/15 10:34:23;;;;;;;;;;;;;;;23.64;46.34;98996.50;89073;1265;80868;-60
2022/09/15 10:36:35;;;;;;;;;;;;;;;23.70;46.15;98995.98;89072;1265;83092;-60
2022/09/15 10:38:48;;;;;;;;;;;;;;;23.66;46.24;98995.30;89038;1265;97861;-59
2022/09/15 10:41:03;;;;;;;;;;;;;;;23.74;45.83;98997.64;89051;1265;86819;-61
2022/09/15 10:43:23;;;;;;;;;;;;;;;23.79;45.74;98996.88;88906;1267;95048;-61
2022/09/15 10:45:33;;;;;;;;;;;;;;;23.58;46.10;98990.94;89029;1265;80981;-60
2022/09/15 10:47:49;;;;;;;;;;;;;;;23.42;46.48;98989.42;89041;1265;81211;-61
2022/09/15 10:50:12;;;;;;;;;;;;;;;23.38;46.61;98982.88;89010;1265;99983;-61
2022/09/15 10:52:26;;;;;;;;;;;;;;;23.39;46.94;98981.64;89006;1265;87267;-62
2022/09/15 10:54:51;;;;;;;;;;;;;;;23.34;47.40;98987.95;88994;1265;94828;-62
2022/09/15 10:57:06;;;;;;;;;;;;;;;23.26;47.24;98994.12;89046;1265;80406;-61
2022/09/15 10:59:34;;;;;;;;;;;;;;;23.29;47.40;98999.68;89012;1265;83083;-61
2022/09/15 11:01:50;;;;;;;;;;;;;;;23.36;47.12;98996.64;89065;1265;100281;-61
2022/09/15 11:04:11;;;;;;;;;;;;;;;23.52;47.00;98997.92;89031;1265;87650;-61
2022/09/15 11:06:24;;;;;;;;;;;;;;;23.45;47.28;98997.50;89047;1267;95163;-60
2022/09/15 11:08:42;;;;;;;;;;;;;;;23.53;46.79;98996.29;89093;1265;79924;-61
2022/09/15 11:11:04;;;;;;;;;;;;;;;23.59;46.10;98990.98;89102;1265;82168;-62
2022/09/15 11:13:18;;;;;;;;;;;;;;;23.45;45.94;98988.84;89055;1265;100459;-62
2022/09/15 11:15:40;;;;;;;;;;;;;;;23.22;46.65;98987.77;89085;1265;89075;-59
2022/09/15 11:17:59;;;;;;;;;;;;;;;23.13;46.35;98994.70;89031;1265;95770;-60
2022/09/15 11:20:39;;;;;;;;;;;;;;;22.95;46.50;98993.23;89045;1265;79814;-60
2022/09/15 11:22:51;;;;;;;;;;;;;;;22.79;46.34;98993.42;89031;1265;81163;-60
2022/09/15 11:25:01;;;;;;;;;;;;;;;22.70;46.32;98991.73;89055;1265;100438;-60